createdAt,value
2022-12-04T00:00:41.563Z,101985.08
2022-12-04T00:03:15.191Z,101981.96
2022-12-04T00:05:48.588Z,101982.14
2022-12-04T00:08:22.066Z,101986.67
2022-12-04T00:10:55.831Z,101975.59
2022-12-04T00:13:29.275Z,101980.30
2022-12-04T00:16:04.481Z,101978.12
2022-12-04T00:18:38.677Z,101970.45
2022-12-04T00:21:14.520Z,101973.92
2022-12-04T00:23:48.776Z,101974.29
2022-12-04T00:26:24.122Z,101979.13
2022-12-04T00:28:58.173Z,101984.61
2022-12-04T00:31:32.294Z,101982.27
2022-12-04T00:34:08.222Z,101975.77
2022-12-04T00:36:40.884Z,101976.30
2022-12-04T00:39:14.158Z,101978.48
2022-12-04T00:41:47.505Z,101974.66
2022-12-04T00:44:20.797Z,101964.31
2022-12-04T00:46:54.109Z,101974.11
2022-12-04T00:49:27.383Z,101971.75
2022-12-04T00:52:00.626Z,101974.27
2022-12-04T00:54:35.198Z,101966.80
2022-12-04T00:57:08.856Z,101968.97
2022-12-04T00:59:42.633Z,101976.87
2022-12-04T01:02:16.602Z,101976.69
2022-12-04T01:04:50.362Z,101966.01
2022-12-04T01:07:23.861Z,101975.39
2022-12-04T01:09:57.648Z,101985.51
2022-12-04T01:12:31.446Z,101976.60
2022-12-04T01:15:05.370Z,101976.02
2022-12-04T01:17:39.079Z,101987.61
2022-12-04T01:20:15.028Z,101994.62
2022-12-04T01:22:48.297Z,101985.72
2022-12-04T01:25:21.938Z,101993.52
2022-12-04T01:27:55.314Z,101989.86
2022-12-04T01:30:29.138Z,101996.95
2022-12-04T01:33:02.589Z,101998.77
2022-12-04T01:35:36.246Z,102003.80
2022-12-04T01:38:09.826Z,101992.55
2022-12-04T01:40:47.193Z,101983.52
2022-12-04T01:43:21.306Z,101989.30
2022-12-04T01:45:56.719Z,101989.23
2022-12-04T01:48:32.874Z,101983.01
2022-12-04T01:51:10.185Z,101987.89
2022-12-04T01:53:45.926Z,101992.50
2022-12-04T01:56:24.351Z,101997.38
2022-12-04T01:59:00.385Z,101993.73
2022-12-04T02:01:36.808Z,101991.91
2022-12-04T02:04:10.542Z,101990.63
2022-12-04T02:06:44.122Z,102000.55
2022-12-04T02:09:23.010Z,101992.23
2022-12-04T02:11:56.569Z,101991.16
2022-12-04T02:14:35.675Z,102001.58
2022-12-04T02:17:13.639Z,101995.02
2022-12-04T02:20:04.250Z,101993.00
2022-12-04T02:22:49.420Z,101986.33
2022-12-04T02:25:27.580Z,101989.90
2022-12-04T02:28:09.095Z,101990.60
2022-12-04T02:30:45.768Z,101984.31
2022-12-04T02:33:24.110Z,101995.67
2022-12-04T02:36:01.074Z,101992.95
2022-12-04T02:38:37.888Z,101999.05
2022-12-04T02:41:15.185Z,101997.73
2022-12-04T02:43:51.530Z,102010.20
2022-12-04T02:46:27.808Z,102006.36
2022-12-04T02:49:03.682Z,102005.66
2022-12-04T02:51:39.999Z,102012.35
2022-12-04T02:54:16.214Z,101998.25
2022-12-04T02:56:51.908Z,102013.57
2022-12-04T02:59:28.539Z,102011.75
2022-12-04T03:02:04.951Z,102014.98
2022-12-04T03:04:40.465Z,102004.53
2022-12-04T03:07:17.336Z,102010.63
2022-12-04T03:09:56.649Z,102013.28
2022-12-04T03:12:33.228Z,102019.47
2022-12-04T03:15:10.597Z,102012.45
2022-12-04T03:17:44.165Z,102013.98
2022-12-04T03:20:20.574Z,102017.45
2022-12-04T03:22:57.327Z,102018.47
2022-12-04T03:25:34.070Z,102009.76
2022-12-04T03:28:10.789Z,102030.01
2022-12-04T03:30:47.291Z,102023.86
2022-12-04T03:33:23.891Z,102024.94
2022-12-04T03:36:00.182Z,102039.11
2022-12-04T03:38:36.556Z,102029.50
2022-12-04T03:41:12.914Z,102028.09
2022-12-04T03:43:49.733Z,102015.63
2022-12-04T03:46:26.765Z,102022.09
2022-12-04T03:49:03.616Z,102027.09
2022-12-04T03:51:39.923Z,102026.58
2022-12-04T03:54:16.323Z,102037.02
2022-12-04T03:56:53.570Z,102030.33
2022-12-04T03:59:30.044Z,102029.20
2022-12-04T04:02:06.619Z,102034.27
2022-12-04T04:04:42.369Z,102028.30
2022-12-04T04:07:18.562Z,102026.48
2022-12-04T04:09:55.162Z,102027.60
2022-12-04T04:12:31.829Z,102031.73
2022-12-04T04:15:45.103Z,102040.77
2022-12-04T04:21:18.983Z,102048.42
2022-12-04T04:24:11.490Z,102042.88
2022-12-04T04:26:48.049Z,102043.89
2022-12-04T04:29:21.694Z,102043.63
2022-12-04T04:31:57.911Z,102042.69
2022-12-04T04:34:34.606Z,102043.82
2022-12-04T04:37:10.775Z,102045.64
2022-12-04T04:39:47.126Z,102046.34
2022-12-04T04:42:24.421Z,102053.55
2022-12-04T04:45:01.689Z,102055.34
2022-12-04T04:47:35.896Z,102056.36
2022-12-04T04:50:12.970Z,102058.88
2022-12-04T04:52:48.908Z,102061.53
2022-12-04T04:55:23.180Z,102060.63
2022-12-04T04:57:57.984Z,102064.77
2022-12-04T05:00:31.933Z,102060.63
2022-12-04T05:03:05.753Z,102068.92
2022-12-04T05:05:39.345Z,102073.05
2022-12-04T05:08:12.837Z,102063.67
2022-12-04T05:10:46.356Z,102075.58
2022-12-04T05:13:20.695Z,102070.75
2022-12-04T05:16:00.711Z,102072.97
2022-12-04T05:18:35.545Z,102074.69
2022-12-04T05:21:10.855Z,102068.92
2022-12-04T05:23:44.525Z,102062.43
2022-12-04T05:26:18.250Z,102067.72
2022-12-04T05:28:51.821Z,102066.59
2022-12-04T05:31:25.653Z,102067.48
2022-12-04T05:33:59.174Z,102067.91
2022-12-04T05:36:32.932Z,102056.78
2022-12-04T05:39:06.382Z,102062.73
2022-12-04T05:41:39.836Z,102067.29
2022-12-04T05:44:13.600Z,102063.05
2022-12-04T05:46:47.334Z,102068.11
2022-12-04T05:49:20.873Z,102077.02
2022-12-04T05:51:54.554Z,102067.98
2022-12-04T05:54:28.156Z,102071.84
2022-12-04T05:57:02.029Z,102083.48
2022-12-04T05:59:35.505Z,102078.09
2022-12-04T06:02:08.752Z,102075.67
2022-12-04T06:04:42.556Z,102082.44
2022-12-04T06:07:16.069Z,102077.57
2022-12-04T06:09:49.652Z,102077.25
2022-12-04T06:12:23.081Z,102084.76
2022-12-04T06:14:56.923Z,102088.99
2022-12-04T06:17:30.578Z,102080.75
2022-12-04T06:20:09.521Z,102077.75
2022-12-04T06:22:39.610Z,102081.44
2022-12-04T06:25:13.597Z,102088.86
2022-12-04T06:27:47.220Z,102083.41
2022-12-04T06:30:20.915Z,102079.09
2022-12-04T06:32:54.455Z,102077.81
2022-12-04T06:35:27.528Z,102073.69
2022-12-04T06:38:01.213Z,102078.23
2022-12-04T06:40:34.920Z,102073.54
2022-12-04T06:43:08.382Z,102083.17
2022-12-04T06:45:41.776Z,102076.84
2022-12-04T06:48:15.400Z,102080.63
2022-12-04T06:50:49.743Z,102075.72
2022-12-04T06:53:23.196Z,102076.95
2022-12-04T06:55:56.719Z,102079.58
2022-12-04T06:58:30.848Z,102071.34
2022-12-04T07:01:08.702Z,102070.77
2022-12-04T07:03:47.832Z,102078.73
2022-12-04T07:06:19.231Z,102074.88
2022-12-04T07:08:54.658Z,102075.30
2022-12-04T07:11:28.692Z,102077.14
2022-12-04T07:14:02.525Z,102070.71
2022-12-04T07:16:40.769Z,102078.38
2022-12-04T07:19:11.264Z,102072.69
2022-12-04T07:21:44.834Z,102087.50
2022-12-04T07:24:19.786Z,102083.39
2022-12-04T07:26:53.444Z,102084.74
2022-12-04T07:29:26.936Z,102073.41
2022-12-04T07:32:00.691Z,102077.63
2022-12-04T07:34:35.806Z,102071.98
2022-12-04T07:37:09.157Z,102074.12
2022-12-04T07:39:42.770Z,102093.42
2022-12-04T07:42:19.717Z,102069.89
2022-12-04T07:44:51.379Z,102074.51
2022-12-04T07:47:24.875Z,102070.84
2022-12-04T07:49:58.518Z,102077.66
2022-12-04T07:52:32.035Z,102084.28
2022-12-04T07:55:06.600Z,102076.80
2022-12-04T07:57:40.205Z,102084.83
2022-12-04T08:00:16.773Z,102092.98
2022-12-04T08:02:50.928Z,102100.95
2022-12-04T08:05:24.316Z,102097.64
2022-12-04T08:07:57.693Z,102086.99
2022-12-04T08:10:31.000Z,102087.16
2022-12-04T08:13:04.666Z,102084.93
2022-12-04T08:15:38.140Z,102092.80
2022-12-04T08:18:11.858Z,102097.38
2022-12-04T08:20:45.488Z,102088.73
2022-12-04T08:23:19.008Z,102095.38
2022-12-04T08:25:52.350Z,102091.92
2022-12-04T08:28:26.014Z,102099.94
2022-12-04T08:31:04.959Z,102093.44
2022-12-04T08:33:38.574Z,102091.62
2022-12-04T08:36:15.181Z,102098.34
2022-12-04T08:38:49.711Z,102090.06
2022-12-04T08:41:26.254Z,102097.86
2022-12-04T08:44:01.073Z,102104.14
2022-12-04T08:46:35.026Z,102091.81
2022-12-04T08:49:08.478Z,102104.25
2022-12-04T08:51:42.378Z,102098.92
2022-12-04T08:54:16.778Z,102090.56
2022-12-04T08:56:50.110Z,102076.89
2022-12-04T08:59:23.405Z,102082.52
2022-12-04T09:01:57.236Z,102084.88
2022-12-04T09:04:30.868Z,102087.55
2022-12-04T09:07:04.498Z,102083.81
2022-12-04T09:09:38.011Z,102078.68
2022-12-04T09:12:11.178Z,102080.33
2022-12-04T09:14:44.828Z,102080.16
2022-12-04T09:17:18.528Z,102081.69
2022-12-04T09:19:55.500Z,102078.67
2022-12-04T09:22:40.393Z,102076.87
2022-12-04T09:25:02.272Z,102084.11
2022-12-04T09:27:41.498Z,102083.19
2022-12-04T09:30:16.215Z,102083.56
2022-12-04T09:32:49.880Z,102078.79
2022-12-04T09:35:23.278Z,102077.84
2022-12-04T09:37:56.888Z,102071.59
2022-12-04T09:40:37.631Z,102065.52
2022-12-04T09:43:10.336Z,102061.49
2022-12-04T09:45:46.906Z,102059.20
2022-12-04T09:48:22.687Z,102068.48
2022-12-04T09:50:56.658Z,102067.46
2022-12-04T09:53:34.917Z,102069.75
2022-12-04T09:56:12.482Z,102063.73
2022-12-04T09:58:48.939Z,102077.77
2022-12-04T10:01:26.152Z,102074.13
2022-12-04T10:04:05.750Z,102064.77
2022-12-04T10:06:37.373Z,102072.34
2022-12-04T10:09:13.669Z,102056.04
2022-12-04T10:11:52.420Z,102066.27
2022-12-04T10:15:01.404Z,102069.20
2022-12-04T10:17:56.001Z,102068.27
2022-12-04T10:20:44.817Z,102067.68
2022-12-04T10:23:21.746Z,102062.66
2022-12-04T10:25:56.641Z,102060.84
2022-12-04T10:28:33.196Z,102059.91
2022-12-04T10:31:09.220Z,102055.03
2022-12-04T10:33:47.503Z,102053.17
2022-12-04T10:36:23.948Z,102048.27
2022-12-04T10:39:01.092Z,102043.78
2022-12-04T10:41:38.869Z,102047.78
2022-12-04T10:44:12.186Z,102045.86
2022-12-04T10:46:46.642Z,102046.55
2022-12-04T10:49:22.822Z,102043.55
2022-12-04T10:51:57.448Z,102038.77
2022-12-04T10:54:33.805Z,102044.41
2022-12-04T10:57:09.487Z,102051.03
2022-12-04T10:59:51.465Z,102040.77
2022-12-04T11:02:29.292Z,102049.82
2022-12-04T11:05:04.436Z,102038.06
2022-12-04T11:07:40.567Z,102044.09
2022-12-04T11:10:24.833Z,102046.23
2022-12-04T11:13:00.372Z,102054.93
2022-12-04T11:15:35.279Z,102047.48
2022-12-04T11:18:16.049Z,102049.92
2022-12-04T11:20:56.018Z,102045.12
2022-12-04T11:23:31.527Z,102051.77
2022-12-04T11:26:06.364Z,102055.67
2022-12-04T11:28:42.739Z,102049.65
2022-12-04T11:31:21.754Z,102042.36
2022-12-04T11:33:57.306Z,102036.30
2022-12-04T11:36:33.591Z,102037.10
2022-12-04T11:39:10.495Z,102040.00
2022-12-04T11:41:44.044Z,102040.87
2022-12-04T11:44:27.046Z,102033.70
2022-12-04T11:47:02.851Z,102034.58
2022-12-04T11:49:42.233Z,102043.72
2022-12-04T11:52:19.096Z,102040.88
2022-12-04T11:54:59.238Z,102038.55
2022-12-04T11:57:38.159Z,102041.25
2022-12-04T12:00:16.803Z,102045.11
2022-12-04T12:06:12.366Z,102048.86
2022-12-04T12:08:59.210Z,102041.94
2022-12-04T12:11:35.993Z,102046.80
2022-12-04T12:14:15.467Z,102046.34
2022-12-04T12:16:56.267Z,102040.09
2022-12-04T12:19:47.358Z,102040.33
2022-12-04T12:22:28.192Z,102054.20
2022-12-04T12:25:05.941Z,102044.77
2022-12-04T12:27:48.205Z,102048.66
2022-12-04T12:30:24.004Z,102043.75
2022-12-04T12:33:12.248Z,102051.02
2022-12-04T12:35:49.359Z,102045.92
2022-12-04T12:38:25.472Z,102053.36
2022-12-04T12:41:02.275Z,102053.19
2022-12-04T12:43:39.375Z,102055.34
2022-12-04T12:46:16.594Z,102058.80
2022-12-04T12:48:58.106Z,102051.50
2022-12-04T12:51:33.800Z,102051.50
2022-12-04T12:54:15.796Z,102064.39
2022-12-04T12:56:51.958Z,102063.46
2022-12-04T12:59:28.310Z,102060.92
2022-12-04T13:02:05.366Z,102055.30
2022-12-04T13:04:42.286Z,102057.27
2022-12-04T13:07:27.216Z,102062.52
2022-12-04T13:10:04.782Z,102064.31
2022-12-04T13:12:41.139Z,102066.67
2022-12-04T13:15:18.751Z,102064.45
2022-12-04T13:17:52.342Z,102069.16
2022-12-04T13:20:28.583Z,102061.73
2022-12-04T13:23:11.272Z,102061.00
2022-12-04T13:25:50.756Z,102067.67
2022-12-04T13:28:34.077Z,102070.75
2022-12-04T13:31:13.993Z,102066.38
2022-12-04T13:34:13.256Z,102071.41
2022-12-04T13:37:12.967Z,102070.86
2022-12-04T13:40:37.211Z,102068.45
2022-12-04T13:43:22.001Z,102077.71
2022-12-04T13:45:58.251Z,102081.31
2022-12-04T13:48:40.612Z,102069.14
2022-12-04T13:51:39.993Z,102062.11
2022-12-04T13:54:27.018Z,102070.28
2022-12-04T13:57:13.729Z,102074.06
2022-12-04T13:59:48.943Z,102068.62
2022-12-04T14:02:29.181Z,102072.05
2022-12-04T14:05:05.860Z,102066.79
2022-12-04T14:07:41.128Z,102070.97
2022-12-04T14:10:29.779Z,102066.61
2022-12-04T14:13:06.067Z,102070.38
2022-12-04T14:15:41.682Z,102072.92
2022-12-04T14:18:23.550Z,102068.55
2022-12-04T14:21:04.344Z,102059.86
2022-12-04T14:23:40.815Z,102063.64
2022-12-04T14:26:48.951Z,102060.73
2022-12-04T14:29:19.017Z,102062.00
2022-12-04T14:31:53.602Z,102071.78
2022-12-04T14:35:02.479Z,102057.42
2022-12-04T14:37:48.472Z,102058.55
2022-12-04T14:40:31.256Z,102060.67
2022-12-04T14:43:09.965Z,102056.00
2022-12-04T14:45:49.888Z,102058.55
2022-12-04T14:48:30.873Z,102054.70
2022-12-04T14:51:08.967Z,102054.70
2022-12-04T14:53:45.788Z,102064.33
2022-12-04T14:56:28.012Z,102055.23
2022-12-04T14:59:02.918Z,102055.23
2022-12-04T15:01:38.441Z,102048.14
2022-12-04T15:04:17.660Z,102043.78
2022-12-04T15:06:56.915Z,102047.22
2022-12-04T15:09:45.387Z,102048.86
2022-12-04T15:12:37.323Z,102043.41
2022-12-04T15:15:21.433Z,102050.80
2022-12-04T15:18:02.882Z,102046.25
2022-12-04T15:20:39.511Z,102055.88
2022-12-04T15:23:15.030Z,102050.44
2022-12-04T15:25:50.934Z,102049.53
2022-12-04T15:28:26.888Z,102044.65
2022-12-04T15:31:02.383Z,102042.83
2022-12-04T15:33:38.676Z,102039.39
2022-12-04T15:36:16.118Z,102042.83
2022-12-04T15:38:51.132Z,102037.04
2022-12-04T15:41:34.303Z,102043.16
2022-12-04T15:44:24.807Z,102037.69
2022-12-04T15:47:00.942Z,102038.77
2022-12-04T15:49:34.957Z,102040.56
2022-12-04T15:52:15.592Z,102049.44
2022-12-04T15:54:52.013Z,102041.23
2022-12-04T15:57:28.507Z,102051.01
2022-12-04T16:00:05.472Z,102044.11
2022-12-04T16:02:42.876Z,102047.73
2022-12-04T16:05:24.519Z,102043.70
2022-12-04T16:07:59.957Z,102048.77
2022-12-04T16:10:35.580Z,102047.13
2022-12-04T16:13:29.410Z,102051.64
2022-12-04T16:16:04.308Z,102048.77
2022-12-04T16:18:39.292Z,102045.83
2022-12-04T16:21:15.633Z,102042.58
2022-12-04T16:23:48.633Z,102039.34
2022-12-04T16:26:22.835Z,102047.98
2022-12-04T16:28:55.903Z,102038.55
2022-12-04T16:31:30.193Z,102038.70
2022-12-04T16:34:03.657Z,102030.91
2022-12-04T16:36:37.446Z,102037.91
2022-12-04T16:39:10.818Z,102042.09
2022-12-04T16:41:43.967Z,102040.26
2022-12-04T16:44:18.480Z,102044.43
2022-12-04T16:46:53.014Z,102041.89
2022-12-04T16:49:26.212Z,102044.95
2022-12-04T16:52:03.801Z,102063.20
2022-12-04T16:54:37.856Z,102045.05
2022-12-04T16:57:11.577Z,102048.11
2022-12-04T16:59:44.623Z,102037.92
2022-12-04T17:02:20.995Z,102044.82
2022-12-04T17:05:04.417Z,102042.58
2022-12-04T17:07:37.979Z,102041.30
2022-12-04T17:10:12.805Z,102035.49
2022-12-04T17:12:46.579Z,102036.34
2022-12-04T17:15:19.662Z,102046.66
2022-12-04T17:17:53.140Z,102034.32
2022-12-04T17:20:27.413Z,102030.89
2022-12-04T17:23:00.987Z,102032.81
2022-12-04T17:25:34.105Z,102048.53
2022-12-04T17:28:07.699Z,102025.68
2022-12-04T17:30:40.818Z,102017.89
2022-12-04T17:33:13.851Z,102024.55
2022-12-04T17:35:47.762Z,102040.45
2022-12-04T17:38:20.897Z,102031.06
2022-12-04T17:41:02.390Z,102027.73
2022-12-04T17:43:36.216Z,102029.14
2022-12-04T17:46:13.285Z,102031.48
2022-12-04T17:48:46.977Z,102027.13
2022-12-04T17:51:22.204Z,102020.05
2022-12-04T17:53:55.607Z,102014.98
2022-12-04T17:56:28.812Z,102025.42
2022-12-04T17:59:02.000Z,102015.11
2022-12-04T18:01:35.755Z,102013.80
2022-12-04T18:04:09.753Z,102015.23
2022-12-04T18:06:44.835Z,102010.17
2022-12-04T18:09:18.927Z,102006.20
2022-12-04T18:11:52.267Z,102007.93
2022-12-04T18:14:25.648Z,102013.22
2022-12-04T18:17:01.250Z,102011.39
2022-12-04T18:19:35.556Z,102009.05
2022-12-04T18:22:08.741Z,102009.37
2022-12-04T18:24:42.136Z,102009.37
2022-12-04T18:27:15.343Z,102011.71
2022-12-04T18:29:48.473Z,102018.80
2022-12-04T18:32:21.557Z,102018.56
2022-12-04T18:34:55.714Z,101993.48
2022-12-04T18:37:28.872Z,102004.31
2022-12-04T18:40:06.507Z,102009.37
2022-12-04T18:42:37.034Z,102000.56
2022-12-04T18:45:12.317Z,102003.28
2022-12-04T18:47:48.208Z,102002.16
2022-12-04T18:50:22.011Z,102010.69
2022-12-04T18:53:00.906Z,102006.20
2022-12-04T18:55:33.755Z,102002.58
2022-12-04T18:58:08.004Z,101999.53
2022-12-04T19:00:42.605Z,101991.72
2022-12-04T19:03:16.864Z,101996.27
2022-12-04T19:05:51.891Z,102001.84
2022-12-04T19:08:31.361Z,102000.75
2022-12-04T19:11:07.720Z,101996.39
2022-12-04T19:13:41.577Z,101989.51
2022-12-04T19:16:16.495Z,101991.34
2022-12-04T19:18:50.345Z,101988.09
2022-12-04T19:21:24.357Z,101999.63
2022-12-04T19:24:00.843Z,101983.03
2022-12-04T19:26:35.810Z,101984.45
2022-12-04T19:29:10.318Z,101990.95
2022-12-04T19:31:44.505Z,101985.15
2022-12-04T19:34:18.529Z,101982.05
2022-12-04T19:36:52.367Z,101980.41
2022-12-04T19:39:26.069Z,101968.45
2022-12-04T19:42:00.041Z,101976.05
2022-12-04T19:44:48.297Z,101974.64
2022-12-04T19:47:12.503Z,101982.55
2022-12-04T19:49:46.676Z,101993.00
2022-12-04T19:52:20.457Z,101986.11
2022-12-04T19:54:54.311Z,101999.85
2022-12-04T19:57:28.233Z,101984.67
2022-12-04T20:00:02.468Z,101999.85
2022-12-04T20:02:38.876Z,101987.71
2022-12-04T20:05:13.181Z,101980.86
2022-12-04T20:07:47.011Z,101981.37
2022-12-04T20:10:21.453Z,101980.25
2022-12-04T20:12:55.507Z,101988.95
2022-12-04T20:15:29.331Z,101983.48
2022-12-04T20:18:03.314Z,101993.09
2022-12-04T20:20:37.129Z,101990.36
2022-12-04T20:23:10.847Z,101980.95
2022-12-04T20:25:44.538Z,101987.13
2022-12-04T20:28:18.655Z,101976.40
2022-12-04T20:30:53.235Z,101995.94
2022-12-04T20:33:27.003Z,101993.59
2022-12-04T20:36:02.564Z,101983.67
2022-12-04T20:38:36.667Z,101992.70
2022-12-04T20:41:13.468Z,102000.10
2022-12-04T20:43:48.462Z,101984.22
2022-12-04T20:46:24.342Z,101978.23
2022-12-04T20:48:58.929Z,101983.28
2022-12-04T20:51:35.024Z,101976.63
2022-12-04T20:54:10.347Z,101977.72
2022-12-04T20:56:44.158Z,101987.45
2022-12-04T20:59:19.767Z,101975.50
2022-12-04T21:01:54.833Z,101984.60
2022-12-04T21:04:28.722Z,101986.94
2022-12-04T21:07:02.555Z,101999.40
2022-12-04T21:09:36.623Z,101977.52
2022-12-04T21:12:29.249Z,101994.92
2022-12-04T21:15:20.555Z,102005.23
2022-12-04T21:17:55.365Z,101976.69
2022-12-04T21:20:29.375Z,102014.66
2022-12-04T21:23:03.183Z,101991.48
2022-12-04T21:25:37.480Z,101965.95
2022-12-04T21:28:11.398Z,101966.19
2022-12-04T21:30:45.197Z,101969.61
2022-12-04T21:33:18.890Z,101961.83
2022-12-04T21:35:52.888Z,101967.69
2022-12-04T21:38:26.804Z,101967.47
2022-12-04T21:41:00.694Z,101979.22
2022-12-04T21:43:34.501Z,101960.10
2022-12-04T21:46:09.821Z,101953.92
2022-12-04T21:48:43.050Z,101952.09
2022-12-04T21:51:39.942Z,101943.80
2022-12-04T21:53:50.965Z,101945.63
2022-12-04T21:56:24.144Z,101943.80
2022-12-04T21:58:57.376Z,101924.45
2022-12-04T22:01:30.933Z,101978.20
2022-12-04T22:04:04.195Z,101936.81
2022-12-04T22:06:38.034Z,101941.36
2022-12-04T22:09:13.452Z,101934.28
2022-12-04T22:11:46.869Z,101919.28
2022-12-04T22:14:20.165Z,101934.15
2022-12-04T22:16:54.372Z,101926.69
2022-12-04T22:19:27.362Z,101918.36
2022-12-04T22:22:00.470Z,101924.34
2022-12-04T22:24:34.178Z,101899.23
2022-12-04T22:27:09.599Z,101907.72
2022-12-04T22:30:02.257Z,101907.34
2022-12-04T22:32:19.459Z,101911.88
2022-12-04T22:34:53.088Z,101905.93
2022-12-04T22:37:28.244Z,101891.13
2022-12-04T22:40:02.301Z,101900.35
2022-12-04T22:42:36.050Z,101903.07
2022-12-04T22:45:11.292Z,101896.56
2022-12-04T22:47:45.299Z,101898.39
2022-12-04T22:50:20.127Z,101898.01
2022-12-04T22:52:53.933Z,101885.73
2022-12-04T22:55:27.628Z,101888.97
2022-12-04T22:58:01.355Z,101897.81
2022-12-04T23:00:35.138Z,101887.98
2022-12-04T23:03:08.928Z,101896.52
2022-12-04T23:05:42.787Z,101892.16
2022-12-04T23:08:16.460Z,101899.04
2022-12-04T23:10:50.283Z,101883.25
2022-12-04T23:13:24.077Z,101874.44
2022-12-04T23:15:57.952Z,101884.37
2022-12-04T23:18:31.973Z,101889.95
2022-12-04T23:21:07.592Z,101887.00
2022-12-04T23:23:43.612Z,101882.69
2022-12-04T23:26:18.966Z,101884.47
2022-12-04T23:28:53.129Z,101881.23
2022-12-04T23:31:27.253Z,101876.17
2022-12-04T23:34:01.991Z,101873.97
2022-12-04T23:36:35.893Z,101884.09
2022-12-04T23:39:09.832Z,101872.15
2022-12-04T23:41:43.651Z,101881.56
2022-12-04T23:44:17.518Z,101875.80
2022-12-04T23:46:51.356Z,101877.72
2022-12-04T23:49:25.209Z,101878.23
2022-12-04T23:51:59.045Z,101874.30
2022-12-04T23:54:35.151Z,101878.47
2022-12-04T23:57:09.626Z,101868.86
2022-12-04T23:59:43.586Z,101863.06
